sensor_id;sensor_type;location;lat;lon;timestamp;temperature;humidity
11246;DHT22;59870;50.106;8.580;2024-02-28T06:13:15;5.70;92.70
11246;DHT22;59870;50.106;8.580;2024-02-28T06:19:00;6.00;93.00
11246;DHT22;59870;50.106;8.580;2024-02-28T06:21:34;6.00;92.90
11246;DHT22;59870;50.106;8.580;2024-02-28T07:09:01;6.40;94.80
11246;DHT22;59870;50.106;8.580;2024-02-28T07:11:33;6.50;94.70
11246;DHT22;59870;50.106;8.580;2024-02-28T07:14:32;6.50;94.90
11246;DHT22;59870;50.106;8.580;2024-02-28T07:54:14;7.20;94.70
11246;DHT22;59870;50.106;8.580;2024-02-28T07:56:44;7.30;94.60
11246;DHT22;59870;50.106;8.580;2024-02-28T07:59:13;7.30;94.40
11246;DHT22;59870;50.106;8.580;2024-02-28T08:01:49;7.30;94.40
11246;DHT22;59870;50.106;8.580;2024-02-28T08:04:19;7.40;94.40
11246;DHT22;59870;50.106;8.580;2024-02-28T08:06:48;7.40;94.40
11246;DHT22;59870;50.106;8.580;2024-02-28T08:09:19;7.50;94.40
11246;DHT22;59870;50.106;8.580;2024-02-28T08:11:50;7.60;94.10
11246;DHT22;59870;50.106;8.580;2024-02-28T08:14:19;7.60;94.10
11246;DHT22;59870;50.106;8.580;2024-02-28T08:16:50;7.70;94.20
11246;DHT22;59870;50.106;8.580;2024-02-28T08:19:20;7.80;94.00
11246;DHT22;59870;50.106;8.580;2024-02-28T08:21:54;8.00;93.90
11246;DHT22;59870;50.106;8.580;2024-02-28T08:24:25;8.10;94.00
11246;DHT22;59870;50.106;8.580;2024-02-28T08:26:55;8.20;93.80
11246;DHT22;59870;50.106;8.580;2024-02-28T08:29:24;8.30;93.80
11246;DHT22;59870;50.106;8.580;2024-02-28T08:31:52;8.40;93.80
11246;DHT22;59870;50.106;8.580;2024-02-28T08:34:21;8.60;93.60
11246;DHT22;59870;50.106;8.580;2024-02-28T08:36:50;8.80;93.50
11246;DHT22;59870;50.106;8.580;2024-02-28T08:39:19;9.00;93.30
11246;DHT22;59870;50.106;8.580;2024-02-28T08:41:49;9.20;93.00
11246;DHT22;59870;50.106;8.580;2024-02-28T08:44:18;9.50;92.50
11246;DHT22;59870;50.106;8.580;2024-02-28T08:46:48;9.80;92.20
11246;DHT22;59870;50.106;8.580;2024-02-28T08:49:16;10.00;91.20
11246;DHT22;59870;50.106;8.580;2024-02-28T08:51:45;10.30;90.80
11246;DHT22;59870;50.106;8.580;2024-02-28T08:54:16;10.60;90.90
11246;DHT22;59870;50.106;8.580;2024-02-28T08:56:45;10.90;90.70
11246;DHT22;59870;50.106;8.580;2024-02-28T08:59:24;11.20;90.10
11246;DHT22;59870;50.106;8.580;2024-02-28T09:01:53;11.80;88.90
11246;DHT22;59870;50.106;8.580;2024-02-28T09:04:22;12.00;86.70
11246;DHT22;59870;50.106;8.580;2024-02-28T09:06:51;12.30;86.00
11246;DHT22;59870;50.106;8.580;2024-02-28T09:09:20;12.00;84.40
11246;DHT22;59870;50.106;8.580;2024-02-28T09:11:49;13.10;84.40
11246;DHT22;59870;50.106;8.580;2024-02-28T09:14:18;13.30;83.60
11246;DHT22;59870;50.106;8.580;2024-02-28T09:16:48;13.10;82.90
11246;DHT22;59870;50.106;8.580;2024-02-28T09:19:17;13.20;82.70
11246;DHT22;59870;50.106;8.580;2024-02-28T09:21:45;13.30;83.00
11246;DHT22;59870;50.106;8.580;2024-02-28T09:24:15;13.50;83.60
11246;DHT22;59870;50.106;8.580;2024-02-28T09:26:44;13.80;83.00
11246;DHT22;59870;50.106;8.580;2024-02-28T09:29:13;14.10;81.00
11246;DHT22;59870;50.106;8.580;2024-02-28T09:31:41;14.40;79.60
11246;DHT22;59870;50.106;8.580;2024-02-28T09:34:12;14.60;78.80
11246;DHT22;59870;50.106;8.580;2024-02-28T09:36:41;14.90;77.30
11246;DHT22;59870;50.106;8.580;2024-02-28T09:39:13;15.30;76.80
11246;DHT22;59870;50.106;8.580;2024-02-28T09:41:42;15.10;76.10
11246;DHT22;59870;50.106;8.580;2024-02-28T09:44:11;15.10;76.20
11246;DHT22;59870;50.106;8.580;2024-02-28T09:46:40;15.30;76.40
11246;DHT22;59870;50.106;8.580;2024-02-28T09:49:11;15.40;74.80
11246;DHT22;59870;50.106;8.580;2024-02-28T09:51:42;15.40;74.50
11246;DHT22;59870;50.106;8.580;2024-02-28T09:54:12;15.50;75.40
11246;DHT22;59870;50.106;8.580;2024-02-28T09:56:40;15.50;74.00
11246;DHT22;59870;50.106;8.580;2024-02-28T09:59:10;15.40;74.50
11246;DHT22;59870;50.106;8.580;2024-02-28T10:01:43;15.40;76.40
11246;DHT22;59870;50.106;8.580;2024-02-28T10:04:14;15.50;74.70
11246;DHT22;59870;50.106;8.580;2024-02-28T10:06:42;15.60;75.00
11246;DHT22;59870;50.106;8.580;2024-02-28T10:09:11;15.70;73.40
11246;DHT22;59870;50.106;8.580;2024-02-28T10:12:10;15.60;73.00
11246;DHT22;59870;50.106;8.580;2024-02-28T10:14:39;15.50;73.50
11246;DHT22;59870;50.106;8.580;2024-02-28T10:17:33;15.60;74.90
11246;DHT22;59870;50.106;8.580;2024-02-28T11:21:03;12.40;82.60
11246;DHT22;59870;50.106;8.580;2024-02-28T11:23:46;12.40;82.70
11246;DHT22;59870;50.106;8.580;2024-02-28T11:29:22;12.30;83.60
11246;DHT22;59870;50.106;8.580;2024-02-28T11:31:58;12.20;83.40
11246;DHT22;59870;50.106;8.580;2024-02-28T11:34:55;12.30;84.00
11246;DHT22;59870;50.106;8.580;2024-02-28T11:37:26;12.10;84.00
11246;DHT22;59870;50.106;8.580;2024-02-28T11:40:11;12.10;84.30
11246;DHT22;59870;50.106;8.580;2024-02-28T11:47:37;12.10;85.70
11246;DHT22;59870;50.106;8.580;2024-02-28T11:50:51;12.10;85.00
11246;DHT22;59870;50.106;8.580;2024-02-28T12:12:19;12.20;85.20
11246;DHT22;59870;50.106;8.580;2024-02-28T12:14:58;12.30;84.00
11246;DHT22;59870;50.106;8.580;2024-02-28T12:18:11;12.10;84.20
11246;DHT22;59870;50.106;8.580;2024-02-28T12:20:41;12.10;84.40
11246;DHT22;59870;50.106;8.580;2024-02-28T12:23:12;12.10;83.20
11246;DHT22;59870;50.106;8.580;2024-02-28T12:25:41;12.30;83.80
11246;DHT22;59870;50.106;8.580;2024-02-28T12:28:12;12.40;84.00
11246;DHT22;59870;50.106;8.580;2024-02-28T12:30:41;12.40;83.80
11246;DHT22;59870;50.106;8.580;2024-02-28T12:33:12;12.40;84.00
11246;DHT22;59870;50.106;8.580;2024-02-28T12:35:42;12.50;83.90
11246;DHT22;59870;50.106;8.580;2024-02-28T12:38:11;12.70;84.00
11246;DHT22;59870;50.106;8.580;2024-02-28T12:40:41;12.60;83.90
11246;DHT22;59870;50.106;8.580;2024-02-28T12:43:12;12.50;84.10
11246;DHT22;59870;50.106;8.580;2024-02-28T12:51:01;12.60;84.40
11246;DHT22;59870;50.106;8.580;2024-02-28T12:53:32;12.60;83.90
11246;DHT22;59870;50.106;8.580;2024-02-28T12:56:04;12.60;83.10
11246;DHT22;59870;50.106;8.580;2024-02-28T12:58:40;12.40;83.30
11246;DHT22;59870;50.106;8.580;2024-02-28T13:01:09;12.60;83.30
11246;DHT22;59870;50.106;8.580;2024-02-28T13:03:40;12.80;83.90
11246;DHT22;59870;50.106;8.580;2024-02-28T13:06:09;12.70;83.40
11246;DHT22;59870;50.106;8.580;2024-02-28T13:08:39;12.70;82.50
11246;DHT22;59870;50.106;8.580;2024-02-28T13:11:09;12.70;82.60
11246;DHT22;59870;50.106;8.580;2024-02-28T13:13:41;12.90;82.70
11246;DHT22;59870;50.106;8.580;2024-02-28T13:16:10;12.80;83.00
11246;DHT22;59870;50.106;8.580;2024-02-28T13:18:42;12.80;81.30
11246;DHT22;59870;50.106;8.580;2024-02-28T13:21:12;13.00;81.60
11246;DHT22;59870;50.106;8.580;2024-02-28T13:23:41;12.90;80.00
11246;DHT22;59870;50.106;8.580;2024-02-28T13:26:10;12.90;79.70
11246;DHT22;59870;50.106;8.580;2024-02-28T13:28:49;12.90;79.60
11246;DHT22;59870;50.106;8.580;2024-02-28T13:31:21;12.90;80.10
11246;DHT22;59870;50.106;8.580;2024-02-28T13:33:50;13.00;79.40
11246;DHT22;59870;50.106;8.580;2024-02-28T13:36:19;13.20;79.40
11246;DHT22;59870;50.106;8.580;2024-02-28T13:38:48;13.00;80.00
11246;DHT22;59870;50.106;8.580;2024-02-28T13:41:20;13.10;79.70
11246;DHT22;59870;50.106;8.580;2024-02-28T13:43:51;13.30;80.00
11246;DHT22;59870;50.106;8.580;2024-02-28T13:46:20;13.20;79.40
11246;DHT22;59870;50.106;8.580;2024-02-28T13:48:51;13.30;78.20
11246;DHT22;59870;50.106;8.580;2024-02-28T13:51:20;13.50;77.30
11246;DHT22;59870;50.106;8.580;2024-02-28T13:53:53;13.30;75.50
11246;DHT22;59870;50.106;8.580;2024-02-28T13:56:47;13.30;76.10
11246;DHT22;59870;50.106;8.580;2024-02-28T13:59:20;13.30;75.80
11246;DHT22;59870;50.106;8.580;2024-02-28T14:01:50;13.40;77.60
11246;DHT22;59870;50.106;8.580;2024-02-28T14:04:19;13.50;78.20
11246;DHT22;59870;50.106;8.580;2024-02-28T14:06:48;13.50;77.70
11246;DHT22;59870;50.106;8.580;2024-02-28T14:09:24;13.70;77.70
11246;DHT22;59870;50.106;8.580;2024-02-28T14:12:05;13.60;77.80
11246;DHT22;59870;50.106;8.580;2024-02-28T14:14:36;13.60;76.60
11246;DHT22;59870;50.106;8.580;2024-02-28T14:17:13;13.80;77.80
11246;DHT22;59870;50.106;8.580;2024-02-28T14:19:44;13.60;78.00
11246;DHT22;59870;50.106;8.580;2024-02-28T14:28:52;13.80;78.30
11246;DHT22;59870;50.106;8.580;2024-02-28T14:31:50;14.00;78.30
11246;DHT22;59870;50.106;8.580;2024-02-28T14:34:19;13.90;76.20
11246;DHT22;59870;50.106;8.580;2024-02-28T14:36:48;13.60;76.60
11246;DHT22;59870;50.106;8.580;2024-02-28T14:39:17;14.10;76.10
11246;DHT22;59870;50.106;8.580;2024-02-28T14:41:47;14.00;75.80
11246;DHT22;59870;50.106;8.580;2024-02-28T14:44:17;14.20;76.40
11246;DHT22;59870;50.106;8.580;2024-02-28T14:46:47;14.20;75.90
11246;DHT22;59870;50.106;8.580;2024-02-28T14:49:17;14.10;75.30
11246;DHT22;59870;50.106;8.580;2024-02-28T14:51:48;14.20;74.20
11246;DHT22;59870;50.106;8.580;2024-02-28T14:54:28;14.20;74.70
11246;DHT22;59870;50.106;8.580;2024-02-28T14:58:21;14.10;74.50
11246;DHT22;59870;50.106;8.580;2024-02-28T15:01:20;14.20;75.30
11246;DHT22;59870;50.106;8.580;2024-02-28T15:03:57;14.30;73.80
11246;DHT22;59870;50.106;8.580;2024-02-28T15:06:34;14.30;72.90
11246;DHT22;59870;50.106;8.580;2024-02-28T15:09:38;14.30;72.80
11246;DHT22;59870;50.106;8.580;2024-02-28T15:12:13;14.30;73.00
11246;DHT22;59870;50.106;8.580;2024-02-28T15:14:57;14.50;73.30
11246;DHT22;59870;50.106;8.580;2024-02-28T15:22:15;14.40;72.90
11246;DHT22;59870;50.106;8.580;2024-02-28T15:25:51;14.40;71.00
11246;DHT22;59870;50.106;8.580;2024-02-28T15:28:53;14.40;70.50
11246;DHT22;59870;50.106;8.580;2024-02-28T15:31:24;14.50;70.50
11246;DHT22;59870;50.106;8.580;2024-02-28T15:38:34;14.40;72.40
11246;DHT22;59870;50.106;8.580;2024-02-28T15:41:03;14.50;72.00
11246;DHT22;59870;50.106;8.580;2024-02-28T15:43:32;14.30;72.60
11246;DHT22;59870;50.106;8.580;2024-02-28T15:46:04;14.20;73.20
11246;DHT22;59870;50.106;8.580;2024-02-28T15:52:25;14.40;72.20
11246;DHT22;59870;50.106;8.580;2024-02-28T15:54:57;14.40;72.20
11246;DHT22;59870;50.106;8.580;2024-02-28T15:57:28;14.10;72.40
11246;DHT22;59870;50.106;8.580;2024-02-28T16:00:02;14.40;71.40
11246;DHT22;59870;50.106;8.580;2024-02-28T16:02:38;14.40;71.40
11246;DHT22;59870;50.106;8.580;2024-02-28T16:05:08;14.30;71.60
11246;DHT22;59870;50.106;8.580;2024-02-28T16:07:41;14.50;72.10
11246;DHT22;59870;50.106;8.580;2024-02-28T16:10:12;14.40;72.30
11246;DHT22;59870;50.106;8.580;2024-02-28T16:16:06;14.30;72.70
11246;DHT22;59870;50.106;8.580;2024-02-28T16:18:36;14.30;72.00
11246;DHT22;59870;50.106;8.580;2024-02-28T16:21:04;14.20;71.40
11246;DHT22;59870;50.106;8.580;2024-02-28T16:23:33;14.00;70.30
11246;DHT22;59870;50.106;8.580;2024-02-28T16:26:04;14.40;70.80
11246;DHT22;59870;50.106;8.580;2024-02-28T16:28:36;14.40;71.40
11246;DHT22;59870;50.106;8.580;2024-02-28T16:31:07;14.40;71.50
11246;DHT22;59870;50.106;8.580;2024-02-28T16:33:39;14.20;70.50
11246;DHT22;59870;50.106;8.580;2024-02-28T16:36:12;14.20;70.60
11246;DHT22;59870;50.106;8.580;2024-02-28T16:38:44;14.10;70.80
11246;DHT22;59870;50.106;8.580;2024-02-28T16:41:17;14.10;69.90
11246;DHT22;59870;50.106;8.580;2024-02-28T16:43:46;14.00;69.60
11246;DHT22;59870;50.106;8.580;2024-02-28T16:46:17;14.00;69.80
11246;DHT22;59870;50.106;8.580;2024-02-28T16:48:47;14.00;71.30
11246;DHT22;59870;50.106;8.580;2024-02-28T16:51:18;14.20;71.30
11246;DHT22;59870;50.106;8.580;2024-02-28T16:53:48;14.00;71.60
11246;DHT22;59870;50.106;8.580;2024-02-28T16:56:19;13.90;73.20
11246;DHT22;59870;50.106;8.580;2024-02-28T16:58:48;14.10;72.20
11246;DHT22;59870;50.106;8.580;2024-02-28T17:01:17;14.10;73.00
11246;DHT22;59870;50.106;8.580;2024-02-28T17:03:46;13.90;72.70
11246;DHT22;59870;50.106;8.580;2024-02-28T17:06:16;14.00;72.50
11246;DHT22;59870;50.106;8.580;2024-02-28T17:08:46;13.80;72.50
11246;DHT22;59870;50.106;8.580;2024-02-28T17:11:18;13.80;72.80
11246;DHT22;59870;50.106;8.580;2024-02-28T17:13:49;13.80;73.00
11246;DHT22;59870;50.106;8.580;2024-02-28T17:16:18;13.80;73.00
11246;DHT22;59870;50.106;8.580;2024-02-28T17:18:48;13.90;73.20
11246;DHT22;59870;50.106;8.580;2024-02-28T17:21:17;13.70;74.30
11246;DHT22;59870;50.106;8.580;2024-02-28T17:23:47;13.70;74.60
11246;DHT22;59870;50.106;8.580;2024-02-28T17:26:20;13.70;74.30
11246;DHT22;59870;50.106;8.580;2024-02-28T17:28:49;13.60;74.20
11246;DHT22;59870;50.106;8.580;2024-02-28T17:31:18;13.60;74.20
11246;DHT22;59870;50.106;8.580;2024-02-28T17:33:46;13.50;74.90
11246;DHT22;59870;50.106;8.580;2024-02-28T17:36:15;13.50;75.40
11246;DHT22;59870;50.106;8.580;2024-02-28T17:38:45;13.40;76.10
11246;DHT22;59870;50.106;8.580;2024-02-28T17:41:14;13.40;75.50
11246;DHT22;59870;50.106;8.580;2024-02-28T17:43:44;13.60;75.80
11246;DHT22;59870;50.106;8.580;2024-02-28T17:46:14;13.50;75.80
11246;DHT22;59870;50.106;8.580;2024-02-28T17:48:43;13.50;76.20
11246;DHT22;59870;50.106;8.580;2024-02-28T17:51:12;13.30;77.00
11246;DHT22;59870;50.106;8.580;2024-02-28T17:53:41;13.30;77.40
11246;DHT22;59870;50.106;8.580;2024-02-28T17:56:10;13.40;78.00
11246;DHT22;59870;50.106;8.580;2024-02-28T17:58:39;13.30;78.60
11246;DHT22;59870;50.106;8.580;2024-02-28T18:01:09;13.10;78.90
11246;DHT22;59870;50.106;8.580;2024-02-28T18:03:39;13.20;79.50
11246;DHT22;59870;50.106;8.580;2024-02-28T18:06:09;13.10;80.10
11246;DHT22;59870;50.106;8.580;2024-02-28T18:08:38;12.90;80.10
11246;DHT22;59870;50.106;8.580;2024-02-28T18:11:07;12.80;80.40
11246;DHT22;59870;50.106;8.580;2024-02-28T18:13:37;12.80;81.30
11246;DHT22;59870;50.106;8.580;2024-02-28T18:16:05;12.70;80.90
11246;DHT22;59870;50.106;8.580;2024-02-28T18:18:38;12.60;80.40
11246;DHT22;59870;50.106;8.580;2024-02-28T18:21:07;12.60;78.90
11246;DHT22;59870;50.106;8.580;2024-02-28T18:23:36;12.60;79.20
11246;DHT22;59870;50.106;8.580;2024-02-28T18:26:05;12.50;78.90
11246;DHT22;59870;50.106;8.580;2024-02-28T18:28:35;12.40;78.60
11246;DHT22;59870;50.106;8.580;2024-02-28T18:31:05;12.60;79.40
11246;DHT22;59870;50.106;8.580;2024-02-28T18:33:34;12.30;79.10
11246;DHT22;59870;50.106;8.580;2024-02-28T18:36:05;12.50;79.80
11246;DHT22;59870;50.106;8.580;2024-02-28T18:38:34;12.30;79.60
11246;DHT22;59870;50.106;8.580;2024-02-28T18:41:03;12.30;80.00
11246;DHT22;59870;50.106;8.580;2024-02-28T18:43:33;12.30;80.50
11246;DHT22;59870;50.106;8.580;2024-02-28T18:46:05;12.20;80.00
11246;DHT22;59870;50.106;8.580;2024-02-28T18:48:36;12.30;80.40
11246;DHT22;59870;50.106;8.580;2024-02-28T18:51:07;12.10;81.10
11246;DHT22;59870;50.106;8.580;2024-02-28T18:53:36;12.00;81.20
11246;DHT22;59870;50.106;8.580;2024-02-28T18:56:09;12.20;81.60
11246;DHT22;59870;50.106;8.580;2024-02-28T18:58:38;12.00;81.70
11246;DHT22;59870;50.106;8.580;2024-02-28T19:04:32;11.90;83.00
11246;DHT22;59870;50.106;8.580;2024-02-28T19:07:05;11.80;81.90
11246;DHT22;59870;50.106;8.580;2024-02-28T19:09:37;11.80;81.90
11246;DHT22;59870;50.106;8.580;2024-02-28T19:12:08;12.00;83.00
11246;DHT22;59870;50.106;8.580;2024-02-28T19:14:37;11.80;82.70
11246;DHT22;59870;50.106;8.580;2024-02-28T19:17:07;11.90;82.80
11246;DHT22;59870;50.106;8.580;2024-02-28T19:19:36;11.90;83.40
11246;DHT22;59870;50.106;8.580;2024-02-28T19:22:07;11.90;83.70
11246;DHT22;59870;50.106;8.580;2024-02-28T19:24:36;11.60;83.40
11246;DHT22;59870;50.106;8.580;2024-02-28T19:27:06;11.80;83.60
11246;DHT22;59870;50.106;8.580;2024-02-28T19:29:36;11.50;83.60
11246;DHT22;59870;50.106;8.580;2024-02-28T19:32:07;11.50;83.30
11246;DHT22;59870;50.106;8.580;2024-02-28T19:34:37;11.50;83.50
11246;DHT22;59870;50.106;8.580;2024-02-28T19:37:39;11.50;83.50
11246;DHT22;59870;50.106;8.580;2024-02-28T19:40:11;11.40;84.30
11246;DHT22;59870;50.106;8.580;2024-02-28T19:42:40;11.40;84.10
11246;DHT22;59870;50.106;8.580;2024-02-28T19:45:11;11.50;84.30
11246;DHT22;59870;50.106;8.580;2024-02-28T19:47:43;11.50;84.40
11246;DHT22;59870;50.106;8.580;2024-02-28T19:51:02;11.20;85.40
11246;DHT22;59870;50.106;8.580;2024-02-28T19:53:36;11.20;85.00
11246;DHT22;59870;50.106;8.580;2024-02-28T19:56:34;11.10;85.20
11246;DHT22;59870;50.106;8.580;2024-02-28T19:59:30;11.00;85.50
11246;DHT22;59870;50.106;8.580;2024-02-28T20:02:00;11.00;84.70
11246;DHT22;59870;50.106;8.580;2024-02-28T20:04:31;11.00;85.00
11246;DHT22;59870;50.106;8.580;2024-02-28T20:07:06;11.00;84.70
11246;DHT22;59870;50.106;8.580;2024-02-28T20:09:40;11.00;85.10
11246;DHT22;59870;50.106;8.580;2024-02-28T20:12:12;11.00;85.20
11246;DHT22;59870;50.106;8.580;2024-02-28T20:14:43;10.90;85.20
11246;DHT22;59870;50.106;8.580;2024-02-28T20:17:15;11.00;85.70
11246;DHT22;59870;50.106;8.580;2024-02-28T20:19:46;10.90;85.70
11246;DHT22;59870;50.106;8.580;2024-02-28T20:22:15;11.10;85.90
11246;DHT22;59870;50.106;8.580;2024-02-28T20:24:46;10.80;85.90
11246;DHT22;59870;50.106;8.580;2024-02-28T20:27:16;10.90;86.10
11246;DHT22;59870;50.106;8.580;2024-02-28T20:29:45;10.70;86.40
11246;DHT22;59870;50.106;8.580;2024-02-28T20:32:19;10.70;86.40
11246;DHT22;59870;50.106;8.580;2024-02-28T20:34:54;10.90;86.70
11246;DHT22;59870;50.106;8.580;2024-02-28T20:37:23;10.80;86.70
11246;DHT22;59870;50.106;8.580;2024-02-28T20:39:55;10.80;86.70
11246;DHT22;59870;50.106;8.580;2024-02-28T20:42:25;10.80;86.80
11246;DHT22;59870;50.106;8.580;2024-02-28T20:44:54;10.70;86.70
11246;DHT22;59870;50.106;8.580;2024-02-28T20:47:48;10.20;86.40
11246;DHT22;59870;50.106;8.580;2024-02-28T20:50:18;10.40;86.30
11246;DHT22;59870;50.106;8.580;2024-02-28T20:52:48;10.60;87.40
11246;DHT22;59870;50.106;8.580;2024-02-28T20:55:18;10.60;87.00
11246;DHT22;59870;50.106;8.580;2024-02-28T20:57:48;10.30;86.70
11246;DHT22;59870;50.106;8.580;2024-02-28T21:00:17;10.20;86.70
11246;DHT22;59870;50.106;8.580;2024-02-28T21:02:47;10.20;87.20
11246;DHT22;59870;50.106;8.580;2024-02-28T21:05:17;10.30;87.40
11246;DHT22;59870;50.106;8.580;2024-02-28T21:07:46;10.20;87.40
11246;DHT22;59870;50.106;8.580;2024-02-28T21:10:22;10.30;87.00
11246;DHT22;59870;50.106;8.580;2024-02-28T21:12:52;10.20;87.00
11246;DHT22;59870;50.106;8.580;2024-02-28T21:15:22;10.20;87.20
11246;DHT22;59870;50.106;8.580;2024-02-28T21:17:51;10.10;87.10
11246;DHT22;59870;50.106;8.580;2024-02-28T21:20:20;10.10;87.10
11246;DHT22;59870;50.106;8.580;2024-02-28T21:22:50;10.10;87.20
11246;DHT22;59870;50.106;8.580;2024-02-28T21:25:21;9.80;89.00
11246;DHT22;59870;50.106;8.580;2024-02-28T21:27:50;9.80;89.20
11246;DHT22;59870;50.106;8.580;2024-02-28T21:30:19;9.90;89.00
11246;DHT22;59870;50.106;8.580;2024-02-28T21:32:49;9.80;89.00
11246;DHT22;59870;50.106;8.580;2024-02-28T21:35:19;9.70;89.40
11246;DHT22;59870;50.106;8.580;2024-02-28T21:37:48;9.60;89.10
11246;DHT22;59870;50.106;8.580;2024-02-28T21:40:17;9.60;88.80
11246;DHT22;59870;50.106;8.580;2024-02-28T21:42:49;9.60;88.80
11246;DHT22;59870;50.106;8.580;2024-02-28T21:45:19;9.70;89.00
11246;DHT22;59870;50.106;8.580;2024-02-28T21:47:48;9.70;88.90
11246;DHT22;59870;50.106;8.580;2024-02-28T21:50:17;9.50;88.70
11246;DHT22;59870;50.106;8.580;2024-02-28T21:52:46;9.60;89.00
11246;DHT22;59870;50.106;8.580;2024-02-28T21:55:16;9.30;88.60
11246;DHT22;59870;50.106;8.580;2024-02-28T21:57:45;9.30;89.20
11246;DHT22;59870;50.106;8.580;2024-02-28T22:00:17;9.30;89.30
11246;DHT22;59870;50.106;8.580;2024-02-28T22:02:46;9.20;89.80
11246;DHT22;59870;50.106;8.580;2024-02-28T22:05:15;9.20;89.60
11246;DHT22;59870;50.106;8.580;2024-02-28T22:07:45;9.20;89.70
11246;DHT22;59870;50.106;8.580;2024-02-28T22:10:14;8.90;89.40
11246;DHT22;59870;50.106;8.580;2024-02-28T22:12:44;9.10;89.60
11246;DHT22;59870;50.106;8.580;2024-02-28T22:15:16;9.30;89.70
11246;DHT22;59870;50.106;8.580;2024-02-28T22:17:46;9.00;90.00
11246;DHT22;59870;50.106;8.580;2024-02-28T22:20:16;9.20;89.80
11246;DHT22;59870;50.106;8.580;2024-02-28T22:22:45;9.20;90.00
11246;DHT22;59870;50.106;8.580;2024-02-28T22:25:15;9.10;89.70
11246;DHT22;59870;50.106;8.580;2024-02-28T22:27:47;8.90;89.70
11246;DHT22;59870;50.106;8.580;2024-02-28T22:30:23;8.80;89.60
11246;DHT22;59870;50.106;8.580;2024-02-28T22:32:53;8.80;89.90
11246;DHT22;59870;50.106;8.580;2024-02-28T22:35:22;8.90;89.80
11246;DHT22;59870;50.106;8.580;2024-02-28T22:37:51;8.70;89.60
11246;DHT22;59870;50.106;8.580;2024-02-28T22:40:20;8.70;90.10
11246;DHT22;59870;50.106;8.580;2024-02-28T22:42:49;8.60;90.10
11246;DHT22;59870;50.106;8.580;2024-02-28T22:45:18;8.80;90.10
11246;DHT22;59870;50.106;8.580;2024-02-28T22:47:52;8.70;90.30
11246;DHT22;59870;50.106;8.580;2024-02-28T22:50:22;8.70;90.40
11246;DHT22;59870;50.106;8.580;2024-02-28T22:52:51;8.40;90.30
11246;DHT22;59870;50.106;8.580;2024-02-28T22:55:20;8.40;90.40
11246;DHT22;59870;50.106;8.580;2024-02-28T22:57:49;8.40;90.50
11246;DHT22;59870;50.106;8.580;2024-02-28T23:00:22;8.30;90.70
11246;DHT22;59870;50.106;8.580;2024-02-28T23:03:03;8.30;90.70
11246;DHT22;59870;50.106;8.580;2024-02-28T23:05:33;8.20;90.80
11246;DHT22;59870;50.106;8.580;2024-02-28T23:08:02;8.20;90.70
11246;DHT22;59870;50.106;8.580;2024-02-28T23:10:31;8.20;90.70
11246;DHT22;59870;50.106;8.580;2024-02-28T23:13:00;8.20;90.80
11246;DHT22;59870;50.106;8.580;2024-02-28T23:15:31;8.10;90.80
11246;DHT22;59870;50.106;8.580;2024-02-28T23:18:03;8.10;90.50
11246;DHT22;59870;50.106;8.580;2024-02-28T23:20:32;8.10;90.90
11246;DHT22;59870;50.106;8.580;2024-02-28T23:23:03;8.20;90.90
11246;DHT22;59870;50.106;8.580;2024-02-28T23:25:33;8.00;90.90
11246;DHT22;59870;50.106;8.580;2024-02-28T23:28:05;8.00;90.90
11246;DHT22;59870;50.106;8.580;2024-02-28T23:30:34;8.00;90.90
11246;DHT22;59870;50.106;8.580;2024-02-28T23:33:05;7.90;90.90
11246;DHT22;59870;50.106;8.580;2024-02-28T23:35:35;7.90;91.00
11246;DHT22;59870;50.106;8.580;2024-02-28T23:38:04;7.90;91.10
11246;DHT22;59870;50.106;8.580;2024-02-28T23:40:33;7.80;91.20
11246;DHT22;59870;50.106;8.580;2024-02-28T23:43:02;7.80;91.20
11246;DHT22;59870;50.106;8.580;2024-02-28T23:45:32;7.80;91.40
11246;DHT22;59870;50.106;8.580;2024-02-28T23:48:02;7.80;91.20
11246;DHT22;59870;50.106;8.580;2024-02-28T23:50:33;7.70;91.50
11246;DHT22;59870;50.106;8.580;2024-02-28T23:53:02;7.90;91.60
11246;DHT22;59870;50.106;8.580;2024-02-28T23:55:31;7.70;91.60
11246;DHT22;59870;50.106;8.580;2024-02-28T23:58:00;7.70;91.40
